createdAt,value
2019-05-23T00:00:43.218Z,80.82
2019-05-23T00:02:16.099Z,80.64
2019-05-23T00:03:41.016Z,80.57
2019-05-23T00:05:07.876Z,80.39
2019-05-23T00:06:38.218Z,80.59
2019-05-23T00:08:00.971Z,81.15
2019-05-23T00:09:25.885Z,80.95
2019-05-23T00:10:40.946Z,81.02
2019-05-23T00:12:04.911Z,80.77
2019-05-23T00:13:29.288Z,81.00
2019-05-23T00:14:40.025Z,81.11
2019-05-23T00:15:46.320Z,80.91
2019-05-23T00:16:52.654Z,80.84
2019-05-23T00:17:57.683Z,80.69
2019-05-23T00:19:02.871Z,80.57
2019-05-23T00:20:08.030Z,81.19
2019-05-23T00:21:14.645Z,80.78
2019-05-23T00:22:19.893Z,80.88
2019-05-23T00:23:26.115Z,80.93
2019-05-23T00:24:30.672Z,81.00
2019-05-23T00:25:36.875Z,80.99
2019-05-23T00:26:41.527Z,81.18
2019-05-23T00:27:47.904Z,81.08
2019-05-23T00:29:08.989Z,80.64
2019-05-23T00:30:02.337Z,80.79
2019-05-23T00:31:11.736Z,80.96
2019-05-23T00:32:24.491Z,80.47
2019-05-23T00:33:30.541Z,80.71
2019-05-23T00:34:37.228Z,80.20
2019-05-23T00:35:42.085Z,80.82
2019-05-23T00:36:47.768Z,80.62
2019-05-23T00:37:53.596Z,81.12
2019-05-23T00:39:00.006Z,81.09
2019-05-23T00:40:08.886Z,80.98
2019-05-23T00:41:14.933Z,80.60
2019-05-23T00:42:21.121Z,81.09
2019-05-23T00:43:28.243Z,81.04
2019-05-23T00:44:32.663Z,80.93
2019-05-23T00:45:38.472Z,81.16
2019-05-23T00:46:43.765Z,80.80
2019-05-23T00:47:49.138Z,80.62
2019-05-23T00:48:54.621Z,80.84
2019-05-23T00:49:59.597Z,81.08
2019-05-23T00:51:05.851Z,81.11
2019-05-23T00:52:11.565Z,80.85
2019-05-23T00:53:17.586Z,81.07
2019-05-23T00:54:23.524Z,80.78
2019-05-23T00:55:29.253Z,81.28
2019-05-23T00:56:36.972Z,81.62
2019-05-23T00:57:41.613Z,81.41
2019-05-23T00:58:47.159Z,81.53
2019-05-23T00:59:51.719Z,81.23
2019-05-23T01:00:58.153Z,80.65
2019-05-23T01:02:02.956Z,80.55
2019-05-23T01:03:10.617Z,80.73
2019-05-23T01:04:16.744Z,81.07
2019-05-23T01:05:22.885Z,81.51
2019-05-23T01:06:27.665Z,81.61
2019-05-23T01:07:33.196Z,81.89
2019-05-23T01:08:38.350Z,81.21
2019-05-23T01:09:44.868Z,80.75
2019-05-23T01:10:51.401Z,81.73
2019-05-23T01:11:57.031Z,81.85
2019-05-23T01:13:02.823Z,81.83
2019-05-23T01:14:09.335Z,81.94
2019-05-23T01:15:14.603Z,81.75
2019-05-23T01:16:19.673Z,81.58
2019-05-23T01:17:28.774Z,81.63
2019-05-23T01:18:34.017Z,81.84
2019-05-23T01:19:39.653Z,82.00
2019-05-23T01:21:01.428Z,82.15
2019-05-23T01:22:08.269Z,81.90
2019-05-23T01:23:13.830Z,81.44
2019-05-23T01:24:25.671Z,81.84
2019-05-23T01:25:31.109Z,81.74
2019-05-23T01:26:36.706Z,82.14
2019-05-23T01:27:41.775Z,81.86
2019-05-23T01:28:46.758Z,81.57
2019-05-23T01:29:52.995Z,82.19
2019-05-23T01:30:59.160Z,81.93
2019-05-23T01:32:14.526Z,81.73
2019-05-23T01:33:19.769Z,81.44
2019-05-23T01:34:25.826Z,81.87
2019-05-23T01:35:31.809Z,81.73
2019-05-23T01:36:36.927Z,81.66
2019-05-23T01:37:43.621Z,81.86
2019-05-23T01:38:48.127Z,81.77
2019-05-23T01:39:54.105Z,82.39
2019-05-23T01:40:59.481Z,82.04
2019-05-23T01:42:05.128Z,82.27
2019-05-23T01:43:10.599Z,82.35
2019-05-23T01:44:16.935Z,81.91
2019-05-23T01:45:22.664Z,81.97
2019-05-23T01:46:29.113Z,82.26
2019-05-23T01:47:34.467Z,82.04
2019-05-23T01:48:40.748Z,82.49
2019-05-23T01:49:45.234Z,82.67
2019-05-23T01:50:50.961Z,82.46
2019-05-23T01:51:57.096Z,82.83
2019-05-23T01:53:02.110Z,82.97
2019-05-23T01:54:07.093Z,82.33
2019-05-23T01:55:12.611Z,82.18
2019-05-23T01:56:18.305Z,82.36
2019-05-23T01:57:24.821Z,82.58
2019-05-23T01:58:29.702Z,82.85
2019-05-23T01:59:35.223Z,82.94
2019-05-23T02:00:40.178Z,82.96
2019-05-23T02:01:45.688Z,82.95
2019-05-23T02:02:51.237Z,83.35
2019-05-23T02:03:56.596Z,83.25
2019-05-23T02:05:01.352Z,82.83
2019-05-23T02:06:07.154Z,83.13
2019-05-23T02:07:11.943Z,83.21
2019-05-23T02:08:17.115Z,83.21
2019-05-23T02:09:22.190Z,83.09
2019-05-23T02:10:28.059Z,83.25
2019-05-23T02:11:33.280Z,83.19
2019-05-23T02:12:39.888Z,82.85
2019-05-23T02:13:46.682Z,83.09
2019-05-23T02:14:53.067Z,83.15
2019-05-23T02:15:57.630Z,82.89
2019-05-23T02:17:03.113Z,82.78
2019-05-23T02:18:09.304Z,82.88
2019-05-23T02:19:15.083Z,83.13
2019-05-23T02:20:20.376Z,82.73
2019-05-23T02:21:27.627Z,83.50
2019-05-23T02:22:32.868Z,83.52
2019-05-23T02:23:38.583Z,83.15
2019-05-23T02:24:44.463Z,83.51
2019-05-23T02:25:49.756Z,83.55
2019-05-23T02:26:54.886Z,83.24
2019-05-23T02:28:00.980Z,83.26
2019-05-23T02:29:06.384Z,83.56
2019-05-23T02:30:33.125Z,83.67
2019-05-23T02:31:23.396Z,83.79
2019-05-23T02:32:28.793Z,83.44
2019-05-23T02:33:33.579Z,83.68
2019-05-23T02:34:40.116Z,83.70
2019-05-23T02:35:44.678Z,83.49
2019-05-23T02:36:50.449Z,83.73
2019-05-23T02:39:37.741Z,83.80
2019-05-23T02:41:03.183Z,84.01
2019-05-23T02:42:09.316Z,84.31
2019-05-23T02:43:29.100Z,84.42
2019-05-23T02:44:34.648Z,84.56
2019-05-23T02:45:43.749Z,84.34
2019-05-23T02:46:50.118Z,84.15
2019-05-23T02:47:55.264Z,84.32
2019-05-23T02:49:01.330Z,84.53
2019-05-23T02:50:08.583Z,84.55
2019-05-23T02:51:29.440Z,84.56
2019-05-23T02:52:38.581Z,84.77
2019-05-23T02:53:44.478Z,84.74
2019-05-23T02:54:49.957Z,84.99
2019-05-23T02:55:58.286Z,84.76
2019-05-23T02:57:05.299Z,84.44
2019-05-23T02:58:18.901Z,84.54
2019-05-23T02:59:36.622Z,84.45
2019-05-23T03:00:56.170Z,84.25
2019-05-23T03:02:05.281Z,84.59
2019-05-23T03:03:11.830Z,84.64
2019-05-23T03:04:18.286Z,84.61
2019-05-23T03:05:26.014Z,84.44
2019-05-23T03:06:32.874Z,84.59
2019-05-23T03:07:38.828Z,84.63
2019-05-23T03:08:45.073Z,84.41
2019-05-23T03:09:51.142Z,84.52
2019-05-23T03:10:59.231Z,84.92
2019-05-23T03:12:05.922Z,85.10
2019-05-23T03:13:12.645Z,85.34
2019-05-23T03:14:19.228Z,85.03
2019-05-23T03:15:25.443Z,85.01
2019-05-23T03:16:32.700Z,85.02
2019-05-23T03:17:43.570Z,84.77
2019-05-23T03:18:52.968Z,84.90
2019-05-23T03:20:00.161Z,84.85
2019-05-23T03:21:05.911Z,85.23
2019-05-23T03:22:28.900Z,85.45
2019-05-23T03:23:33.791Z,85.06
2019-05-23T03:24:39.675Z,85.12
2019-05-23T03:26:05.275Z,85.22
2019-05-23T03:27:11.338Z,85.86
2019-05-23T03:28:18.865Z,85.75
2019-05-23T03:29:24.386Z,85.41
2019-05-23T03:30:34.049Z,85.50
2019-05-23T03:31:59.946Z,85.19
2019-05-23T03:33:08.868Z,85.48
2019-05-23T03:34:14.305Z,85.33
2019-05-23T03:35:26.334Z,85.37
2019-05-23T03:36:31.656Z,85.48
2019-05-23T03:37:36.491Z,85.41
2019-05-23T03:38:44.093Z,85.27
2019-05-23T03:39:49.462Z,85.51
2019-05-23T03:40:55.616Z,85.55
2019-05-23T03:42:00.681Z,85.89
2019-05-23T03:43:09.286Z,85.77
2019-05-23T03:44:13.784Z,85.47
2019-05-23T03:45:20.166Z,85.21
2019-05-23T03:46:26.376Z,85.45
2019-05-23T03:47:32.055Z,84.97
2019-05-23T03:48:38.638Z,84.88
2019-05-23T03:49:43.818Z,84.83
2019-05-23T03:50:48.967Z,85.04
2019-05-23T03:51:56.103Z,85.22
2019-05-23T03:53:01.167Z,84.86
2019-05-23T03:54:06.504Z,84.77
2019-05-23T03:55:11.864Z,85.49
2019-05-23T03:56:17.002Z,85.42
2019-05-23T03:57:25.713Z,85.42
2019-05-23T03:58:30.790Z,85.45
2019-05-23T03:59:35.741Z,85.38
2019-05-23T04:00:42.065Z,85.52
2019-05-23T04:01:49.593Z,85.35
2019-05-23T04:02:55.704Z,85.65
2019-05-23T04:04:00.710Z,85.52
2019-05-23T04:05:08.736Z,86.91
2019-05-23T04:06:14.077Z,86.18
2019-05-23T04:07:20.112Z,84.83
2019-05-23T04:08:24.908Z,85.97
2019-05-23T04:09:30.311Z,84.73
2019-05-23T04:10:35.429Z,85.27
2019-05-23T04:11:41.117Z,84.92
2019-05-23T04:12:47.444Z,84.52
2019-05-23T04:13:52.639Z,84.18
2019-05-23T04:14:57.578Z,84.59
2019-05-23T04:16:03.226Z,83.84
2019-05-23T04:17:10.736Z,85.22
2019-05-23T04:18:15.995Z,84.57
2019-05-23T04:19:20.441Z,83.63
2019-05-23T04:20:26.177Z,83.62
2019-05-23T04:21:30.996Z,83.38
2019-05-23T04:22:37.113Z,83.93
2019-05-23T04:23:41.618Z,83.27
2019-05-23T04:24:46.694Z,84.21
2019-05-23T04:25:51.893Z,84.07
2019-05-23T04:26:57.364Z,84.26
2019-05-23T04:28:02.125Z,84.38
2019-05-23T04:29:07.196Z,84.45
2019-05-23T04:30:12.173Z,84.52
2019-05-23T04:31:18.479Z,85.56
2019-05-23T04:32:23.111Z,85.76
2019-05-23T04:33:28.103Z,85.95
2019-05-23T04:34:32.599Z,85.62
2019-05-23T04:35:37.670Z,85.66
2019-05-23T04:36:42.166Z,85.46
2019-05-23T04:37:47.737Z,85.73
2019-05-23T04:38:52.160Z,85.69
2019-05-23T04:39:58.057Z,85.66
2019-05-23T04:41:02.784Z,85.95
2019-05-23T04:42:09.244Z,85.84
2019-05-23T04:43:13.664Z,85.83
2019-05-23T04:44:19.709Z,85.84
2019-05-23T04:45:24.491Z,86.01
2019-05-23T04:46:29.454Z,86.03
2019-05-23T04:47:34.439Z,86.04
2019-05-23T04:48:39.853Z,86.15
2019-05-23T04:49:45.008Z,86.35
2019-05-23T04:50:50.451Z,86.35
2019-05-23T04:51:55.482Z,86.31
2019-05-23T04:53:00.952Z,85.66
2019-05-23T04:54:06.389Z,85.59
2019-05-23T04:55:13.832Z,85.05
2019-05-23T04:56:18.519Z,84.33
2019-05-23T04:57:27.057Z,84.14
2019-05-23T04:58:31.537Z,84.18
2019-05-23T04:59:36.685Z,83.94
2019-05-23T05:00:41.279Z,84.19
2019-05-23T05:01:46.432Z,84.50
2019-05-23T05:02:51.240Z,83.76
2019-05-23T05:03:58.280Z,84.33
2019-05-23T05:05:03.385Z,83.73
2019-05-23T05:06:08.537Z,83.87
2019-05-23T05:07:13.025Z,83.40
2019-05-23T05:08:18.425Z,84.21
2019-05-23T05:09:32.124Z,83.73
2019-05-23T05:10:37.777Z,83.11
2019-05-23T05:11:42.839Z,82.75
2019-05-23T05:12:48.502Z,82.70
2019-05-23T05:13:53.288Z,82.11
2019-05-23T05:14:58.361Z,82.14
2019-05-23T05:16:02.790Z,81.71
2019-05-23T05:17:08.206Z,80.78
2019-05-23T05:18:13.262Z,80.81
2019-05-23T05:19:18.710Z,80.74
2019-05-23T05:20:23.473Z,81.03
2019-05-23T05:21:28.640Z,81.13
2019-05-23T05:22:33.495Z,81.50
2019-05-23T05:23:38.990Z,82.43
2019-05-23T05:24:43.476Z,82.48
2019-05-23T05:25:48.548Z,82.75
2019-05-23T05:26:53.309Z,83.02
2019-05-23T05:27:58.683Z,82.01
2019-05-23T05:29:04.033Z,81.55
2019-05-23T05:30:09.677Z,81.07
2019-05-23T05:31:14.246Z,80.24
2019-05-23T05:32:21.175Z,79.68
2019-05-23T05:33:26.462Z,79.76
2019-05-23T05:34:31.925Z,78.26
2019-05-23T05:35:37.484Z,78.28
2019-05-23T05:36:42.765Z,77.05
2019-05-23T05:37:47.244Z,76.99
2019-05-23T05:38:53.042Z,76.20
2019-05-23T05:39:57.546Z,76.33
2019-05-23T05:41:02.601Z,75.89
2019-05-23T05:42:09.230Z,75.39
2019-05-23T05:43:15.766Z,75.86
2019-05-23T05:44:21.174Z,75.61
2019-05-23T05:45:26.306Z,75.48
2019-05-23T05:46:33.177Z,76.19
2019-05-23T05:47:38.685Z,75.92
2019-05-23T05:48:43.511Z,75.43
2019-05-23T05:49:49.648Z,74.28
2019-05-23T05:50:54.895Z,74.59
2019-05-23T05:52:00.091Z,75.48
2019-05-23T05:53:04.965Z,74.58
2019-05-23T05:54:10.939Z,73.16
2019-05-23T05:55:15.996Z,74.98
2019-05-23T05:56:20.997Z,75.11
2019-05-23T05:57:25.425Z,75.68
2019-05-23T05:58:30.535Z,76.47
2019-05-23T05:59:35.117Z,75.99
2019-05-23T06:00:47.093Z,75.27
2019-05-23T06:01:51.532Z,75.07
2019-05-23T06:03:04.192Z,75.25
2019-05-23T06:04:03.963Z,75.06
2019-05-23T06:05:11.562Z,72.69
2019-05-23T06:06:32.785Z,73.61
2019-05-23T06:07:38.994Z,73.02
2019-05-23T06:08:45.169Z,71.72
2019-05-23T06:09:51.270Z,73.48
2019-05-23T06:10:55.756Z,72.58
2019-05-23T06:12:01.509Z,72.70
2019-05-23T06:13:06.068Z,72.51
2019-05-23T06:14:11.097Z,71.85
2019-05-23T06:15:15.860Z,71.81
2019-05-23T06:16:21.125Z,71.07
2019-05-23T06:17:25.701Z,69.89
2019-05-23T06:18:30.917Z,68.44
2019-05-23T06:19:35.617Z,68.98
2019-05-23T06:20:43.562Z,69.21
2019-05-23T06:21:48.795Z,69.57
2019-05-23T06:22:53.950Z,70.68
2019-05-23T06:23:59.111Z,68.69
2019-05-23T06:25:05.224Z,69.66
2019-05-23T06:26:11.146Z,69.21
2019-05-23T06:27:17.203Z,68.62
2019-05-23T06:28:22.008Z,69.44
2019-05-23T06:29:27.111Z,68.72
2019-05-23T06:30:33.358Z,70.42
2019-05-23T06:31:38.739Z,69.54
2019-05-23T06:32:43.228Z,68.00
2019-05-23T06:33:48.330Z,68.40
2019-05-23T06:35:08.571Z,67.52
2019-05-23T06:36:13.920Z,68.62
2019-05-23T06:37:18.430Z,68.05
2019-05-23T06:38:24.528Z,66.44
2019-05-23T06:39:29.042Z,66.43
2019-05-23T06:40:34.460Z,65.44
2019-05-23T06:41:39.467Z,64.73
2019-05-23T06:42:44.931Z,66.43
2019-05-23T06:43:49.508Z,65.28
2019-05-23T06:44:55.738Z,64.98
2019-05-23T06:46:00.224Z,65.59
2019-05-23T06:47:06.837Z,64.12
2019-05-23T06:48:13.664Z,64.70
2019-05-23T06:49:18.755Z,64.66
2019-05-23T06:50:24.959Z,65.84
2019-05-23T06:51:30.263Z,64.68
2019-05-23T06:52:35.025Z,62.72
2019-05-23T06:53:40.091Z,63.72
2019-05-23T06:54:44.595Z,63.02
2019-05-23T06:55:49.660Z,62.72
2019-05-23T06:56:54.146Z,63.40
2019-05-23T06:57:59.154Z,62.58
2019-05-23T06:59:04.207Z,62.68
2019-05-23T07:00:10.322Z,61.84
2019-05-23T07:01:15.390Z,61.94
2019-05-23T07:02:20.697Z,64.52
2019-05-23T07:03:40.405Z,65.14
2019-05-23T07:04:33.046Z,64.35
2019-05-23T07:05:38.203Z,64.61
2019-05-23T07:06:43.512Z,65.90
2019-05-23T07:07:48.547Z,66.55
2019-05-23T07:08:54.851Z,64.13
2019-05-23T07:10:00.426Z,62.14
2019-05-23T07:11:05.454Z,64.44
2019-05-23T07:12:10.791Z,64.37
2019-05-23T07:13:16.825Z,62.91
2019-05-23T07:14:21.795Z,61.25
2019-05-23T07:15:28.023Z,60.42
2019-05-23T07:16:32.576Z,60.16
2019-05-23T07:17:38.511Z,61.32
2019-05-23T07:18:44.769Z,60.32
2019-05-23T07:19:50.278Z,61.06
2019-05-23T07:20:54.706Z,61.06
2019-05-23T07:21:59.752Z,60.76
2019-05-23T07:23:05.610Z,60.94
2019-05-23T07:24:11.231Z,60.83
2019-05-23T07:25:15.801Z,62.13
2019-05-23T07:26:20.941Z,60.24
2019-05-23T07:27:26.186Z,60.96
2019-05-23T07:28:31.185Z,60.19
2019-05-23T07:29:35.746Z,61.48
2019-05-23T07:30:40.812Z,62.08
2019-05-23T07:31:45.251Z,59.18
2019-05-23T07:32:50.411Z,58.65
2019-05-23T07:34:01.618Z,59.63
2019-05-23T07:35:02.893Z,59.13
2019-05-23T07:36:09.107Z,57.38
2019-05-23T07:37:14.348Z,58.36
2019-05-23T07:38:19.193Z,58.32
2019-05-23T07:39:24.208Z,61.08
2019-05-23T07:40:28.902Z,58.47
2019-05-23T07:41:33.950Z,58.43
2019-05-23T07:42:38.632Z,57.69
2019-05-23T07:43:44.036Z,58.14
2019-05-23T07:44:50.164Z,59.85
2019-05-23T07:45:59.720Z,59.78
2019-05-23T07:47:04.286Z,59.90
2019-05-23T07:48:09.595Z,61.40
2019-05-23T07:49:14.618Z,57.20
2019-05-23T07:50:19.996Z,57.92
2019-05-23T07:51:24.403Z,58.59
2019-05-23T07:52:29.643Z,58.63
2019-05-23T07:53:39.004Z,57.76
2019-05-23T07:54:45.147Z,59.92
2019-05-23T07:55:54.377Z,57.23
2019-05-23T07:56:59.363Z,56.16
2019-05-23T07:58:05.165Z,55.95
2019-05-23T07:59:09.577Z,55.41
2019-05-23T08:00:18.783Z,57.57
2019-05-23T08:01:27.575Z,56.83
2019-05-23T08:02:36.267Z,56.87
2019-05-23T08:03:41.421Z,55.47
2019-05-23T08:04:46.766Z,57.95
2019-05-23T08:05:52.224Z,55.90
2019-05-23T08:06:57.981Z,54.51
2019-05-23T08:08:03.107Z,54.69
2019-05-23T08:09:10.067Z,54.63
2019-05-23T08:10:30.894Z,56.67
2019-05-23T08:11:23.093Z,57.25
2019-05-23T08:12:27.861Z,55.24
2019-05-23T08:13:33.299Z,56.19
2019-05-23T08:14:37.709Z,57.03
2019-05-23T08:15:43.515Z,53.10
2019-05-23T08:16:48.038Z,54.89
2019-05-23T08:17:53.021Z,53.81
2019-05-23T08:18:57.493Z,54.46
2019-05-23T08:20:02.652Z,53.98
2019-05-23T08:21:08.243Z,55.60
2019-05-23T08:22:13.296Z,53.51
2019-05-23T08:23:17.862Z,53.29
2019-05-23T08:24:23.509Z,53.51
2019-05-23T08:25:28.064Z,55.95
2019-05-23T08:26:34.521Z,57.14
2019-05-23T08:27:39.056Z,57.41
2019-05-23T08:29:11.413Z,58.31
2019-05-23T08:29:51.349Z,56.45
2019-05-23T08:30:56.644Z,56.90
2019-05-23T08:32:01.352Z,53.38
2019-05-23T08:33:07.550Z,53.88
2019-05-23T08:34:12.301Z,53.22
2019-05-23T08:35:18.200Z,53.95
2019-05-23T08:36:24.169Z,53.14
2019-05-23T08:37:29.611Z,55.24
2019-05-23T08:38:34.961Z,56.27
2019-05-23T08:39:41.687Z,54.80
2019-05-23T08:40:46.381Z,54.05
2019-05-23T08:41:52.242Z,55.40
2019-05-23T08:42:56.791Z,53.35
2019-05-23T08:44:02.244Z,51.87
2019-05-23T08:45:10.387Z,55.28
2019-05-23T08:46:15.863Z,52.79
2019-05-23T08:47:22.362Z,53.83
2019-05-23T08:48:27.571Z,52.92
2019-05-23T08:49:32.499Z,52.27
2019-05-23T08:50:38.145Z,51.58
2019-05-23T08:51:42.762Z,50.12
2019-05-23T08:52:48.134Z,51.51
2019-05-23T08:53:52.616Z,51.54
2019-05-23T08:55:00.688Z,53.13
2019-05-23T08:56:17.896Z,52.18
2019-05-23T08:57:12.835Z,52.84
2019-05-23T08:58:17.463Z,53.65
2019-05-23T08:59:23.818Z,51.82
2019-05-23T09:00:32.981Z,53.48
2019-05-23T09:01:38.303Z,52.06
2019-05-23T09:02:43.999Z,56.33
2019-05-23T09:03:50.062Z,53.69
2019-05-23T09:05:04.523Z,51.87
2019-05-23T09:06:02.400Z,51.16
2019-05-23T09:07:09.593Z,51.81
2019-05-23T09:08:17.022Z,48.65
2019-05-23T09:09:29.816Z,48.93
2019-05-23T09:10:30.385Z,51.91
2019-05-23T09:11:35.854Z,50.18
2019-05-23T09:12:41.199Z,48.25
2019-05-23T09:13:46.320Z,48.27
2019-05-23T09:14:51.389Z,50.69
2019-05-23T09:15:55.879Z,47.42
2019-05-23T09:17:01.277Z,47.64
2019-05-23T09:18:05.929Z,48.31
2019-05-23T09:19:11.006Z,46.49
2019-05-23T09:20:16.906Z,48.11
2019-05-23T09:21:21.907Z,46.12
2019-05-23T09:22:28.115Z,44.17
2019-05-23T09:23:33.112Z,47.80
2019-05-23T09:24:37.599Z,47.17
2019-05-23T09:25:42.931Z,49.33
2019-05-23T09:26:48.027Z,47.24
2019-05-23T09:27:54.072Z,50.12
2019-05-23T09:28:59.089Z,49.54
2019-05-23T09:30:06.103Z,45.45
2019-05-23T09:31:11.123Z,47.92
2019-05-23T09:32:16.220Z,43.78
2019-05-23T09:33:20.637Z,43.83
2019-05-23T09:34:25.887Z,42.86
2019-05-23T09:35:30.507Z,45.04
2019-05-23T09:36:36.314Z,44.84
2019-05-23T09:37:41.400Z,46.78
2019-05-23T09:38:46.631Z,42.63
2019-05-23T09:39:51.577Z,44.87
2019-05-23T09:40:56.823Z,44.07
2019-05-23T09:42:01.282Z,40.48
2019-05-23T09:43:06.886Z,41.03
2019-05-23T09:44:11.576Z,43.55
2019-05-23T09:45:19.007Z,44.20
2019-05-23T09:46:24.601Z,43.31
2019-05-23T09:47:29.724Z,42.66
2019-05-23T09:48:34.592Z,42.10
2019-05-23T09:49:39.670Z,43.05
2019-05-23T09:50:44.226Z,43.19
2019-05-23T09:51:51.405Z,44.46
2019-05-23T09:52:55.626Z,43.13
2019-05-23T09:54:00.932Z,43.23
2019-05-23T09:55:07.379Z,43.93
2019-05-23T09:56:12.569Z,42.67
2019-05-23T09:57:17.056Z,39.25
2019-05-23T09:58:22.132Z,42.53
2019-05-23T09:59:27.061Z,38.98
2019-05-23T10:00:33.178Z,40.60
2019-05-23T10:01:37.769Z,41.38
2019-05-23T10:02:43.205Z,38.25
2019-05-23T10:03:48.323Z,37.26
2019-05-23T10:04:53.600Z,39.32
2019-05-23T10:05:58.129Z,40.10
2019-05-23T10:07:03.501Z,37.77
2019-05-23T10:08:09.348Z,36.47
2019-05-23T10:09:14.780Z,37.58
2019-05-23T10:10:20.303Z,38.54
2019-05-23T10:11:25.434Z,36.45
2019-05-23T10:12:29.938Z,37.86
2019-05-23T10:13:38.988Z,37.05
2019-05-23T10:14:41.296Z,37.48
2019-05-23T10:15:56.367Z,38.00
2019-05-23T10:17:00.919Z,39.98
2019-05-23T10:18:06.656Z,40.18
2019-05-23T10:19:11.198Z,39.99
2019-05-23T10:20:16.846Z,38.70
2019-05-23T10:21:21.349Z,37.20
2019-05-23T10:22:26.699Z,39.51
2019-05-23T10:23:32.162Z,37.29
2019-05-23T10:24:37.621Z,37.84
2019-05-23T10:25:42.100Z,40.10
2019-05-23T10:26:47.233Z,37.44
2019-05-23T10:27:51.791Z,41.59
2019-05-23T10:28:56.912Z,38.82
2019-05-23T10:30:01.455Z,39.46
2019-05-23T10:31:07.572Z,38.63
2019-05-23T10:32:13.591Z,38.29
2019-05-23T10:33:18.755Z,37.39
2019-05-23T10:34:23.383Z,40.41
2019-05-23T10:35:28.485Z,37.42
2019-05-23T10:36:32.971Z,35.74
2019-05-23T10:37:38.044Z,35.80
2019-05-23T10:38:42.644Z,38.77
2019-05-23T10:39:50.702Z,35.74
2019-05-23T10:40:55.115Z,36.21
2019-05-23T10:42:00.179Z,36.18
2019-05-23T10:43:05.266Z,35.15
2019-05-23T10:44:10.559Z,34.94
2019-05-23T10:45:15.473Z,34.27
2019-05-23T10:46:20.813Z,35.43
2019-05-23T10:47:25.869Z,39.84
2019-05-23T10:48:31.507Z,35.69
2019-05-23T10:49:36.031Z,38.12
2019-05-23T10:50:44.586Z,37.33
2019-05-23T10:51:47.309Z,35.13
2019-05-23T10:52:52.555Z,35.55
2019-05-23T10:53:57.170Z,34.38
2019-05-23T10:55:02.246Z,36.21
2019-05-23T10:56:06.904Z,38.69
2019-05-23T10:57:13.302Z,34.42
2019-05-23T10:58:19.341Z,34.85
2019-05-23T10:59:24.476Z,35.63
2019-05-23T11:00:30.917Z,34.08
2019-05-23T11:01:36.576Z,32.59
2019-05-23T11:02:43.266Z,33.84
2019-05-23T11:03:49.042Z,35.57
2019-05-23T11:04:53.864Z,37.89
2019-05-23T11:06:14.465Z,35.37
2019-05-23T11:07:06.058Z,35.31
2019-05-23T11:08:10.904Z,35.05
2019-05-23T11:09:15.560Z,36.61
2019-05-23T11:10:22.050Z,36.05
2019-05-23T11:11:27.083Z,36.75
2019-05-23T11:12:32.523Z,35.73
2019-05-23T11:13:36.973Z,37.90
2019-05-23T11:14:42.371Z,38.82
2019-05-23T11:15:47.687Z,34.95
2019-05-23T11:16:53.675Z,37.66
2019-05-23T11:17:58.739Z,37.63
2019-05-23T11:19:03.967Z,35.24
2019-05-23T11:20:35.870Z,35.98
2019-05-23T11:21:39.551Z,38.25
2019-05-23T11:22:44.053Z,35.41
2019-05-23T11:23:50.384Z,36.89
2019-05-23T11:24:55.536Z,34.43
2019-05-23T11:26:01.604Z,36.07
2019-05-23T11:27:06.725Z,36.20
2019-05-23T11:28:11.894Z,38.60
2019-05-23T11:29:16.674Z,37.35
2019-05-23T11:30:28.877Z,38.76
2019-05-23T11:31:34.800Z,39.27
2019-05-23T11:32:39.858Z,37.76
2019-05-23T11:33:44.285Z,39.08
2019-05-23T11:34:49.593Z,38.26
2019-05-23T11:35:54.161Z,37.75
2019-05-23T11:37:00.529Z,36.57
2019-05-23T11:38:05.204Z,37.90
2019-05-23T11:39:10.912Z,39.23
2019-05-23T11:40:15.598Z,38.55
2019-05-23T11:41:21.423Z,37.01
2019-05-23T11:42:25.911Z,38.82
2019-05-23T11:43:30.909Z,34.99
2019-05-23T11:44:35.416Z,34.69
2019-05-23T11:45:46.088Z,35.97
2019-05-23T11:46:48.469Z,36.05
2019-05-23T11:47:53.833Z,34.85
2019-05-23T11:48:58.763Z,35.41
2019-05-23T11:50:05.305Z,34.60
2019-05-23T11:51:10.964Z,34.66
2019-05-23T11:52:16.243Z,33.67
2019-05-23T11:53:20.743Z,33.96
2019-05-23T11:54:26.010Z,32.81
2019-05-23T11:55:30.786Z,32.84
2019-05-23T11:56:37.427Z,31.89
2019-05-23T11:57:42.025Z,33.36
2019-05-23T11:58:47.169Z,34.67
2019-05-23T11:59:52.224Z,32.79
2019-05-23T12:01:10.468Z,33.82
2019-05-23T12:02:17.151Z,32.79
2019-05-23T12:03:22.252Z,34.74
2019-05-23T12:04:26.952Z,36.63
2019-05-23T12:05:32.472Z,37.34
2019-05-23T12:06:57.236Z,32.86
2019-05-23T12:08:02.309Z,33.28
2019-05-23T12:09:07.671Z,32.61
2019-05-23T12:10:14.384Z,33.89
2019-05-23T12:11:20.028Z,34.21
2019-05-23T12:12:25.765Z,36.14
2019-05-23T12:13:31.705Z,35.97
2019-05-23T12:14:36.867Z,35.73
2019-05-23T12:15:42.194Z,32.51
2019-05-23T12:16:47.636Z,33.25
2019-05-23T12:17:52.151Z,35.54
2019-05-23T12:18:57.226Z,34.99
2019-05-23T12:20:02.867Z,33.20
2019-05-23T12:21:08.311Z,33.57
2019-05-23T12:22:13.506Z,33.70
2019-05-23T12:23:18.506Z,33.86
2019-05-23T12:24:23.385Z,34.10
2019-05-23T12:25:28.917Z,32.42
2019-05-23T12:26:33.337Z,32.60
2019-05-23T12:27:39.140Z,35.06
2019-05-23T12:28:43.821Z,33.24
2019-05-23T12:29:48.943Z,35.14
2019-05-23T12:30:53.623Z,35.03
2019-05-23T12:31:58.702Z,32.52
2019-05-23T12:33:03.477Z,33.37
2019-05-23T12:34:08.559Z,32.92
2019-05-23T12:35:14.563Z,34.76
2019-05-23T12:36:19.901Z,34.77
2019-05-23T12:37:24.811Z,37.86
2019-05-23T12:38:29.808Z,33.46
2019-05-23T12:39:34.306Z,34.51
2019-05-23T12:40:39.395Z,36.18
2019-05-23T12:41:43.958Z,36.59
2019-05-23T12:42:49.023Z,36.60
2019-05-23T12:43:53.510Z,35.00
2019-05-23T12:44:59.751Z,33.40
2019-05-23T12:46:04.829Z,35.08
2019-05-23T12:47:11.029Z,38.27
2019-05-23T12:48:35.445Z,34.45
2019-05-23T12:49:41.575Z,34.99
2019-05-23T12:50:54.366Z,35.65
2019-05-23T12:51:59.328Z,36.06
2019-05-23T12:53:04.564Z,36.34
2019-05-23T12:54:09.651Z,36.31
2019-05-23T12:55:15.133Z,34.43
2019-05-23T12:56:19.962Z,34.68
2019-05-23T12:57:25.312Z,34.07
2019-05-23T12:58:30.547Z,33.26
2019-05-23T12:59:36.590Z,36.07
2019-05-23T13:00:42.925Z,33.70
2019-05-23T13:01:49.114Z,32.26
2019-05-23T13:02:54.715Z,32.53
2019-05-23T13:03:59.598Z,35.30
2019-05-23T13:05:07.640Z,33.68
2019-05-23T13:06:12.919Z,33.50
2019-05-23T13:07:34.653Z,34.38
2019-05-23T13:08:24.547Z,34.85
2019-05-23T13:09:29.784Z,32.80
2019-05-23T13:10:34.860Z,32.00
2019-05-23T13:11:40.097Z,30.80
2019-05-23T13:12:44.777Z,33.71
2019-05-23T13:13:50.039Z,31.07
2019-05-23T13:14:58.687Z,30.56
2019-05-23T13:16:01.582Z,30.04
2019-05-23T13:17:06.084Z,33.19
2019-05-23T13:18:11.080Z,32.54
2019-05-23T13:19:16.218Z,33.66
2019-05-23T13:20:21.822Z,36.42
2019-05-23T13:21:26.402Z,36.31
2019-05-23T13:22:31.425Z,34.07
2019-05-23T13:23:36.622Z,34.06
2019-05-23T13:24:52.521Z,32.61
2019-05-23T13:25:48.901Z,33.08
2019-05-23T13:26:53.914Z,32.79
2019-05-23T13:27:59.054Z,32.66
2019-05-23T13:29:04.176Z,33.84
2019-05-23T13:30:09.247Z,34.63
2019-05-23T13:31:14.411Z,35.71
2019-05-23T13:32:19.295Z,35.78
2019-05-23T13:33:25.037Z,33.79
2019-05-23T13:34:29.605Z,34.71
2019-05-23T13:35:34.798Z,35.42
2019-05-23T13:36:39.295Z,36.45
2019-05-23T13:37:53.708Z,36.31
2019-05-23T13:38:50.967Z,36.45
2019-05-23T13:39:56.037Z,37.16
2019-05-23T13:41:00.481Z,38.52
2019-05-23T13:42:05.689Z,38.00
2019-05-23T13:43:10.473Z,36.39
2019-05-23T13:44:32.009Z,35.92
2019-05-23T13:45:22.408Z,35.78
2019-05-23T13:46:27.840Z,35.91
2019-05-23T13:47:32.741Z,36.97
2019-05-23T13:48:39.065Z,36.74
2019-05-23T13:49:43.776Z,37.55
2019-05-23T13:50:48.857Z,37.51
2019-05-23T13:51:53.745Z,37.74
2019-05-23T13:52:59.222Z,39.34
2019-05-23T13:54:05.250Z,40.13
2019-05-23T13:55:10.391Z,37.69
2019-05-23T13:56:14.917Z,36.68
2019-05-23T13:57:19.991Z,34.53
2019-05-23T13:58:25.661Z,35.47
2019-05-23T13:59:31.114Z,35.85
2019-05-23T14:00:35.620Z,34.75
2019-05-23T14:01:40.652Z,33.42
2019-05-23T14:02:45.181Z,36.52
2019-05-23T14:03:50.521Z,38.12
2019-05-23T14:04:55.116Z,33.89
2019-05-23T14:06:00.353Z,35.02
2019-05-23T14:07:06.783Z,34.03
2019-05-23T14:08:13.386Z,36.96
2019-05-23T14:09:20.215Z,36.12
2019-05-23T14:10:25.458Z,35.53
2019-05-23T14:11:30.054Z,37.24
2019-05-23T14:12:35.138Z,36.49
2019-05-23T14:13:40.017Z,35.75
2019-05-23T14:14:45.096Z,35.70